createdAt,value
2023-04-07T00:00:39.472Z,4.74
2023-04-07T00:01:36.302Z,4.69
2023-04-07T00:02:33.276Z,4.76
2023-04-07T00:03:30.853Z,4.72
2023-04-07T00:04:28.219Z,4.73
2023-04-07T00:05:25.478Z,4.70
2023-04-07T00:06:22.870Z,4.62
2023-04-07T00:07:19.742Z,4.63
2023-04-07T00:08:16.700Z,4.63
2023-04-07T00:09:13.474Z,4.59
2023-04-07T00:10:10.587Z,4.42
2023-04-07T00:11:08.928Z,4.57
2023-04-07T00:12:05.784Z,4.35
2023-04-07T00:13:02.883Z,4.48
2023-04-07T00:13:59.773Z,4.42
2023-04-07T00:14:56.491Z,4.32
2023-04-07T00:15:53.313Z,4.53
2023-04-07T00:16:50.146Z,4.42
2023-04-07T00:17:46.918Z,4.42
2023-04-07T00:18:43.805Z,4.09
2023-04-07T00:19:40.687Z,4.42
2023-04-07T00:20:37.428Z,4.54
2023-04-07T00:21:34.168Z,4.70
2023-04-07T00:22:30.877Z,4.52
2023-04-07T00:23:27.893Z,4.84
2023-04-07T00:24:33.894Z,4.98
2023-04-07T00:25:31.496Z,4.99
2023-04-07T00:26:31.545Z,4.68
2023-04-07T00:27:28.316Z,4.63
2023-04-07T00:28:25.309Z,4.68
2023-04-07T00:29:22.058Z,5.00
2023-04-07T00:30:18.944Z,4.91
2023-04-07T00:31:15.811Z,4.94
2023-04-07T00:32:12.742Z,4.78
2023-04-07T00:33:10.093Z,4.86
2023-04-07T00:34:06.954Z,4.97
2023-04-07T00:35:03.814Z,4.80
2023-04-07T00:36:00.699Z,4.82
2023-04-07T00:36:57.539Z,4.58
2023-04-07T00:37:54.442Z,4.75
2023-04-07T00:38:51.176Z,4.71
2023-04-07T00:39:47.895Z,4.81
2023-04-07T00:40:44.642Z,4.73
2023-04-07T00:41:41.809Z,4.15
2023-04-07T00:42:38.567Z,4.82
2023-04-07T00:43:37.214Z,4.64
2023-04-07T00:44:34.669Z,4.78
2023-04-07T00:45:31.654Z,4.59
2023-04-07T00:46:28.962Z,5.06
2023-04-07T00:47:25.960Z,5.09
2023-04-07T00:48:23.283Z,4.66
2023-04-07T00:49:20.182Z,4.91
2023-04-07T00:50:18.419Z,4.81
2023-04-07T00:51:16.092Z,4.44
2023-04-07T00:52:15.009Z,4.87
2023-04-07T00:53:12.504Z,4.81
2023-04-07T00:54:11.238Z,4.95
2023-04-07T00:55:08.474Z,4.76
2023-04-07T00:56:05.749Z,4.83
2023-04-07T00:57:02.788Z,4.83
2023-04-07T00:57:59.561Z,4.97
2023-04-07T00:58:56.446Z,4.80
2023-04-07T00:59:53.826Z,5.16
2023-04-07T01:01:12.020Z,4.99
2023-04-07T01:02:19.515Z,4.61
2023-04-07T01:03:26.536Z,4.64
2023-04-07T01:04:26.312Z,5.07
2023-04-07T01:05:54.676Z,4.94
2023-04-07T01:06:59.214Z,5.07
2023-04-07T01:08:19.906Z,4.92
2023-04-07T01:09:25.552Z,4.63
2023-04-07T01:10:36.780Z,5.06
2023-04-07T01:11:52.947Z,4.95
2023-04-07T01:12:55.179Z,5.12
2023-04-07T01:13:53.830Z,5.14
2023-04-07T01:14:56.075Z,5.05
2023-04-07T01:15:58.527Z,4.72
2023-04-07T01:17:00.524Z,4.89
2023-04-07T01:18:08.803Z,5.19
2023-04-07T01:19:32.951Z,5.00
2023-04-07T01:20:33.800Z,5.07
2023-04-07T01:21:35.153Z,5.21
2023-04-07T01:22:42.100Z,5.35
2023-04-07T01:24:12.940Z,5.28
2023-04-07T01:25:34.108Z,5.37
2023-04-07T01:26:35.127Z,5.44
2023-04-07T01:27:38.421Z,5.32
2023-04-07T01:28:44.043Z,5.19
2023-04-07T01:29:48.152Z,5.03
2023-04-07T01:30:48.002Z,5.22
2023-04-07T01:31:49.169Z,5.47
2023-04-07T01:32:52.058Z,5.04
2023-04-07T01:33:51.221Z,4.48
2023-04-07T01:34:50.794Z,5.44
2023-04-07T01:35:50.999Z,5.48
2023-04-07T01:36:50.552Z,5.39
2023-04-07T01:37:56.429Z,5.10
2023-04-07T01:38:54.782Z,5.30
2023-04-07T01:39:51.709Z,5.01
2023-04-07T01:40:50.810Z,4.94
2023-04-07T01:41:51.455Z,5.12
2023-04-07T01:42:50.041Z,4.86
2023-04-07T01:43:48.964Z,4.98
2023-04-07T01:44:47.973Z,5.09
2023-04-07T01:45:46.275Z,5.13
2023-04-07T01:46:43.426Z,5.08
2023-04-07T01:47:40.825Z,5.11
2023-04-07T01:48:39.781Z,5.36
2023-04-07T01:49:38.193Z,5.31
2023-04-07T01:50:36.219Z,5.28
2023-04-07T01:51:34.917Z,4.99
2023-04-07T01:52:33.647Z,5.21
2023-04-07T01:53:30.819Z,4.92
2023-04-07T01:54:29.111Z,5.32
2023-04-07T01:55:26.359Z,5.29
2023-04-07T01:56:23.401Z,5.27
2023-04-07T01:57:20.372Z,5.42
2023-04-07T01:58:17.086Z,5.36
2023-04-07T01:59:13.853Z,5.34
2023-04-07T02:00:11.148Z,5.64
2023-04-07T02:01:07.969Z,5.39
2023-04-07T02:02:04.932Z,5.38
2023-04-07T02:03:46.130Z,5.49
2023-04-07T02:04:56.374Z,5.40
2023-04-07T02:05:57.650Z,5.20
2023-04-07T02:07:05.842Z,5.44
2023-04-07T02:08:08.180Z,5.19
2023-04-07T02:09:09.894Z,5.17
2023-04-07T02:10:12.164Z,5.58
2023-04-07T02:11:13.018Z,5.37
2023-04-07T02:12:14.272Z,5.53
2023-04-07T02:13:18.919Z,5.25
2023-04-07T02:14:17.817Z,5.57
2023-04-07T02:15:16.749Z,5.45
2023-04-07T02:16:15.789Z,4.93
2023-04-07T02:17:16.389Z,5.36
2023-04-07T02:18:15.771Z,5.48
2023-04-07T02:19:12.856Z,5.64
2023-04-07T02:20:12.730Z,5.38
2023-04-07T02:21:11.708Z,5.17
2023-04-07T02:22:09.401Z,5.45
2023-04-07T02:23:10.863Z,5.51
2023-04-07T02:24:08.122Z,4.94
2023-04-07T02:25:25.519Z,5.24
2023-04-07T02:26:22.342Z,5.64
2023-04-07T02:27:20.645Z,5.47
2023-04-07T02:28:17.441Z,5.60
2023-04-07T02:29:14.439Z,5.33
2023-04-07T02:30:11.581Z,5.63
2023-04-07T02:31:08.536Z,5.46
2023-04-07T02:32:06.923Z,5.38
2023-04-07T02:33:04.038Z,5.58
2023-04-07T02:34:00.848Z,5.62
2023-04-07T02:34:57.587Z,5.53
2023-04-07T02:35:54.321Z,5.23
2023-04-07T02:36:51.675Z,5.38
2023-04-07T02:37:49.182Z,5.11
2023-04-07T02:38:46.173Z,5.45
2023-04-07T02:39:42.937Z,5.62
2023-04-07T02:40:39.856Z,5.32
2023-04-07T02:41:37.052Z,5.32
2023-04-07T02:42:33.871Z,5.69
2023-04-07T02:43:30.596Z,5.76
2023-04-07T02:44:27.541Z,5.80
2023-04-07T02:45:24.500Z,5.95
2023-04-07T02:46:21.362Z,6.28
2023-04-07T02:47:18.196Z,5.75
2023-04-07T02:48:14.994Z,5.10
2023-04-07T02:49:11.805Z,5.40
2023-04-07T02:50:08.922Z,5.53
2023-04-07T02:51:05.799Z,5.58
2023-04-07T02:52:03.248Z,5.68
2023-04-07T02:53:00.155Z,5.63
2023-04-07T02:53:57.213Z,5.82
2023-04-07T02:54:54.594Z,5.51
2023-04-07T02:55:51.476Z,5.52
2023-04-07T02:56:48.184Z,5.66
2023-04-07T02:57:44.919Z,5.54
2023-04-07T02:58:41.706Z,5.69
2023-04-07T02:59:38.420Z,5.68
2023-04-07T03:00:35.522Z,5.55
2023-04-07T03:01:33.279Z,5.69
2023-04-07T03:02:30.368Z,5.82
2023-04-07T03:03:27.364Z,5.81
2023-04-07T03:04:24.426Z,5.24
2023-04-07T03:05:21.268Z,5.96
2023-04-07T03:06:18.035Z,5.78
2023-04-07T03:07:15.798Z,5.83
2023-04-07T03:08:13.171Z,5.63
2023-04-07T03:09:09.985Z,5.76
2023-04-07T03:10:07.170Z,5.77
2023-04-07T03:11:03.961Z,5.85
2023-04-07T03:12:00.735Z,5.92
2023-04-07T03:12:57.884Z,5.74
2023-04-07T03:13:54.785Z,5.52
2023-04-07T03:14:51.621Z,4.82
2023-04-07T03:15:48.330Z,5.71
2023-04-07T03:16:45.409Z,5.82
2023-04-07T03:17:42.358Z,5.52
2023-04-07T03:18:39.170Z,5.55
2023-04-07T03:19:36.198Z,5.24
2023-04-07T03:20:32.976Z,5.57
2023-04-07T03:21:31.918Z,5.49
2023-04-07T03:22:28.802Z,4.95
2023-04-07T03:23:25.829Z,5.14
2023-04-07T03:24:22.820Z,5.39
2023-04-07T03:25:19.689Z,5.24
2023-04-07T03:26:16.642Z,5.41
2023-04-07T03:27:13.434Z,5.56
2023-04-07T03:28:10.504Z,5.34
2023-04-07T03:29:07.294Z,5.14
2023-04-07T03:30:04.709Z,5.22
2023-04-07T03:31:01.724Z,5.60
2023-04-07T03:31:58.459Z,5.35
2023-04-07T03:32:55.396Z,5.55
2023-04-07T03:33:52.389Z,5.43
2023-04-07T03:34:49.314Z,5.38
2023-04-07T03:35:46.099Z,5.42
2023-04-07T03:36:42.933Z,5.44
2023-04-07T03:37:39.722Z,5.38
2023-04-07T03:38:36.670Z,5.43
2023-04-07T03:39:33.400Z,5.30
2023-04-07T03:40:30.329Z,5.52
2023-04-07T03:41:27.054Z,5.59
2023-04-07T03:42:23.829Z,5.52
2023-04-07T03:43:20.641Z,5.21
2023-04-07T03:44:17.655Z,5.31
2023-04-07T03:45:14.449Z,5.25
2023-04-07T03:46:11.540Z,5.44
2023-04-07T03:47:08.335Z,5.49
2023-04-07T03:48:05.545Z,5.55
2023-04-07T03:49:02.378Z,5.27
2023-04-07T03:49:59.150Z,5.70
2023-04-07T03:50:55.914Z,5.45
2023-04-07T03:51:52.695Z,5.66
2023-04-07T03:52:49.454Z,5.73
2023-04-07T03:53:46.430Z,5.74
2023-04-07T03:54:43.312Z,5.15
2023-04-07T03:55:40.171Z,5.63
2023-04-07T03:56:37.457Z,5.23
2023-04-07T03:57:34.251Z,5.42
2023-04-07T03:58:31.592Z,5.03
2023-04-07T03:59:28.728Z,5.40
2023-04-07T04:00:25.960Z,5.18
2023-04-07T04:01:22.770Z,5.50
2023-04-07T04:02:19.789Z,5.01
2023-04-07T04:03:16.781Z,4.95
2023-04-07T04:04:13.751Z,5.38
2023-04-07T04:05:10.720Z,5.38
2023-04-07T04:06:07.529Z,5.33
2023-04-07T04:07:04.308Z,5.12
2023-04-07T04:08:01.186Z,5.49
2023-04-07T04:08:58.018Z,5.38
2023-04-07T04:09:54.790Z,5.51
2023-04-07T04:10:52.200Z,4.76
2023-04-07T04:11:49.072Z,5.52
2023-04-07T04:12:48.049Z,5.39
2023-04-07T04:13:44.787Z,5.79
2023-04-07T04:14:50.780Z,5.27
2023-04-07T04:15:47.670Z,5.75
2023-04-07T04:16:44.480Z,5.89
2023-04-07T04:17:41.979Z,6.14
2023-04-07T04:18:38.855Z,5.63
2023-04-07T04:19:35.820Z,5.74
2023-04-07T04:20:32.573Z,6.01
2023-04-07T04:21:29.560Z,6.02
2023-04-07T04:22:26.546Z,5.83
2023-04-07T04:23:23.272Z,5.88
2023-04-07T04:24:19.996Z,5.62
2023-04-07T04:25:17.909Z,5.74
2023-04-07T04:26:14.653Z,5.76
2023-04-07T04:27:11.489Z,5.75
2023-04-07T04:28:08.248Z,5.86
2023-04-07T04:29:05.028Z,5.55
2023-04-07T04:30:01.823Z,5.80
2023-04-07T04:30:58.663Z,5.94
2023-04-07T04:31:55.416Z,5.87
2023-04-07T04:32:52.283Z,6.29
2023-04-07T04:33:50.618Z,6.00
2023-04-07T04:34:47.417Z,6.17
2023-04-07T04:35:45.433Z,6.12
2023-04-07T04:36:42.305Z,5.73
2023-04-07T04:37:39.199Z,5.94
2023-04-07T04:38:36.009Z,4.86
2023-04-07T04:39:32.755Z,4.55
2023-04-07T04:40:29.515Z,5.20
2023-04-07T04:41:26.276Z,5.22
2023-04-07T04:42:23.037Z,5.58
2023-04-07T04:43:19.874Z,5.70
2023-04-07T04:44:16.706Z,5.84
2023-04-07T04:45:13.547Z,6.00
2023-04-07T04:46:10.606Z,5.63
2023-04-07T04:47:07.446Z,4.90
2023-04-07T04:48:04.471Z,4.81
2023-04-07T04:49:01.334Z,4.60
2023-04-07T04:49:58.235Z,4.74
2023-04-07T04:50:55.035Z,4.67
2023-04-07T04:51:52.137Z,5.10
2023-04-07T04:52:48.940Z,5.24
2023-04-07T04:53:45.983Z,5.08
2023-04-07T04:54:42.780Z,4.67
2023-04-07T04:55:40.982Z,4.40
2023-04-07T04:56:37.748Z,4.00
2023-04-07T04:57:36.169Z,4.58
2023-04-07T04:58:32.961Z,4.09
2023-04-07T04:59:29.770Z,4.09
2023-04-07T05:00:26.523Z,4.15
2023-04-07T05:01:23.333Z,4.39
2023-04-07T05:02:20.740Z,4.72
2023-04-07T05:03:17.903Z,4.87
2023-04-07T05:04:15.109Z,4.38
2023-04-07T05:05:12.121Z,4.78
2023-04-07T05:06:08.950Z,4.30
2023-04-07T05:07:05.716Z,3.89
2023-04-07T05:08:02.532Z,4.32
2023-04-07T05:08:59.395Z,4.62
2023-04-07T05:09:56.607Z,4.93
2023-04-07T05:10:53.425Z,4.09
2023-04-07T05:11:50.281Z,4.22
2023-04-07T05:12:47.108Z,3.67
2023-04-07T05:13:43.901Z,4.08
2023-04-07T05:14:40.641Z,4.98
2023-04-07T05:15:37.398Z,4.86
2023-04-07T05:16:34.820Z,4.96
2023-04-07T05:17:31.663Z,5.28
2023-04-07T05:18:28.431Z,5.31
2023-04-07T05:19:25.525Z,5.03
2023-04-07T05:20:22.357Z,5.13
2023-04-07T05:21:21.964Z,4.75
2023-04-07T05:22:18.793Z,4.59
2023-04-07T05:23:15.943Z,4.58
2023-04-07T05:24:12.722Z,4.35
2023-04-07T05:25:09.697Z,4.45
2023-04-07T05:26:06.516Z,5.35
2023-04-07T05:27:03.287Z,4.73
2023-04-07T05:28:00.043Z,5.01
2023-04-07T05:28:56.775Z,4.99
2023-04-07T05:29:53.538Z,4.40
2023-04-07T05:30:50.550Z,5.74
2023-04-07T05:31:47.437Z,4.83
2023-04-07T05:32:44.358Z,5.16
2023-04-07T05:33:41.485Z,4.91
2023-04-07T05:34:38.286Z,4.80
2023-04-07T05:35:35.360Z,4.19
2023-04-07T05:36:32.155Z,4.68
2023-04-07T05:37:28.960Z,5.60
2023-04-07T05:38:26.141Z,5.76
2023-04-07T05:39:23.020Z,5.55
2023-04-07T05:40:22.915Z,5.74
2023-04-07T05:41:19.676Z,5.57
2023-04-07T05:42:16.469Z,5.57
2023-04-07T05:43:13.223Z,5.59
2023-04-07T05:44:09.985Z,5.59
2023-04-07T05:45:07.539Z,5.08
2023-04-07T05:46:04.442Z,5.43
2023-04-07T05:47:01.290Z,5.32
2023-04-07T05:47:58.098Z,5.76
2023-04-07T05:48:54.855Z,5.91
2023-04-07T05:49:51.766Z,5.59
2023-04-07T05:50:48.561Z,5.80
2023-04-07T05:51:46.825Z,5.61
2023-04-07T05:52:45.304Z,6.04
2023-04-07T05:53:42.037Z,6.43
2023-04-07T05:54:40.838Z,5.95
2023-04-07T05:55:37.717Z,5.78
2023-04-07T05:56:34.444Z,5.69
2023-04-07T05:57:31.165Z,5.50
2023-04-07T05:58:28.152Z,6.32
2023-04-07T05:59:24.905Z,6.23
2023-04-07T06:00:22.044Z,6.80
2023-04-07T06:01:18.746Z,6.84
2023-04-07T06:02:15.575Z,6.89
2023-04-07T06:03:12.442Z,6.79
2023-04-07T06:04:09.222Z,6.98
2023-04-07T06:05:07.310Z,6.72
2023-04-07T06:06:04.353Z,6.80
2023-04-07T06:07:02.015Z,6.73
2023-04-07T06:07:58.786Z,6.73
2023-04-07T06:08:55.722Z,6.97
2023-04-07T06:09:52.485Z,6.86
2023-04-07T06:10:49.461Z,7.10
2023-04-07T06:11:47.163Z,6.82
2023-04-07T06:12:43.999Z,6.45
2023-04-07T06:13:40.973Z,6.51
2023-04-07T06:14:38.152Z,6.97
2023-04-07T06:15:35.087Z,6.75
2023-04-07T06:16:31.840Z,6.93
2023-04-07T06:17:28.617Z,6.70
2023-04-07T06:18:25.563Z,6.69
2023-04-07T06:19:22.318Z,6.94
2023-04-07T06:20:21.638Z,7.05
2023-04-07T06:21:18.325Z,7.20
2023-04-07T06:22:15.565Z,7.12
2023-04-07T06:23:12.614Z,6.81
2023-04-07T06:24:09.420Z,7.16
2023-04-07T06:25:07.111Z,7.05
2023-04-07T06:26:04.032Z,7.14
2023-04-07T06:27:01.998Z,7.46
2023-04-07T06:27:59.525Z,7.47
2023-04-07T06:28:56.617Z,7.28
2023-04-07T06:29:53.456Z,7.29
2023-04-07T06:30:50.527Z,7.50
2023-04-07T06:31:47.347Z,7.74
2023-04-07T06:32:44.190Z,7.99
2023-04-07T06:33:41.208Z,8.50
2023-04-07T06:34:38.018Z,8.42
2023-04-07T06:35:34.821Z,8.03
2023-04-07T06:36:33.202Z,8.07
2023-04-07T06:37:30.380Z,8.01
2023-04-07T06:38:27.179Z,7.94
2023-04-07T06:39:25.392Z,8.10
2023-04-07T06:40:22.175Z,7.71
2023-04-07T06:41:18.966Z,7.85
2023-04-07T06:42:15.853Z,7.19
2023-04-07T06:43:12.815Z,7.84
2023-04-07T06:44:11.239Z,7.76
2023-04-07T06:45:08.794Z,7.68
2023-04-07T06:46:05.572Z,7.66
2023-04-07T06:47:02.343Z,7.67
2023-04-07T06:47:59.151Z,8.09
2023-04-07T06:48:56.516Z,8.09
2023-04-07T06:49:53.246Z,7.94
2023-04-07T06:50:50.531Z,7.52
2023-04-07T06:51:47.392Z,7.72
2023-04-07T06:52:44.178Z,7.74
2023-04-07T06:53:41.930Z,7.67
2023-04-07T06:54:38.789Z,7.95
2023-04-07T06:55:35.856Z,7.98
2023-04-07T06:56:33.591Z,7.89
2023-04-07T06:57:30.421Z,7.99
2023-04-07T06:58:27.253Z,7.82
2023-04-07T06:59:24.110Z,8.27
2023-04-07T07:00:23.130Z,7.79
2023-04-07T07:01:19.926Z,8.05
2023-04-07T07:02:17.141Z,7.68
2023-04-07T07:03:14.120Z,7.87
2023-04-07T07:04:11.179Z,7.79
2023-04-07T07:05:08.414Z,7.12
2023-04-07T07:06:05.581Z,7.99
2023-04-07T07:07:03.477Z,7.61
2023-04-07T07:08:00.318Z,7.84
2023-04-07T07:08:57.805Z,8.28
2023-04-07T07:09:54.695Z,7.64
2023-04-07T07:10:51.921Z,7.70
2023-04-07T07:11:48.690Z,7.54
2023-04-07T07:12:45.439Z,7.41
2023-04-07T07:13:42.125Z,7.62
2023-04-07T07:14:38.911Z,7.74
2023-04-07T07:15:35.691Z,7.83
2023-04-07T07:16:32.501Z,7.96
2023-04-07T07:17:29.365Z,7.95
2023-04-07T07:18:26.059Z,7.49
2023-04-07T07:19:22.785Z,7.63
2023-04-07T07:20:19.674Z,7.76
2023-04-07T07:21:18.383Z,7.83
2023-04-07T07:22:15.118Z,8.15
2023-04-07T07:23:12.080Z,7.62
2023-04-07T07:24:08.964Z,8.32
2023-04-07T07:25:05.885Z,8.53
2023-04-07T07:26:03.655Z,8.21
2023-04-07T07:27:02.501Z,8.39
2023-04-07T07:27:59.266Z,7.98
2023-04-07T07:28:56.148Z,8.01
2023-04-07T07:29:52.945Z,7.88
2023-04-07T07:30:50.063Z,7.28
2023-04-07T07:31:46.837Z,7.74
2023-04-07T07:32:43.580Z,8.13
2023-04-07T07:33:41.487Z,8.48
2023-04-07T07:34:38.330Z,8.62
2023-04-07T07:35:35.361Z,8.68
2023-04-07T07:36:32.325Z,8.26
2023-04-07T07:37:29.120Z,8.69
2023-04-07T07:38:27.597Z,8.18
2023-04-07T07:39:24.445Z,7.38
2023-04-07T07:40:21.508Z,7.19
2023-04-07T07:41:18.273Z,7.42
2023-04-07T07:42:15.375Z,7.74
2023-04-07T07:43:12.606Z,7.65
2023-04-07T07:44:09.337Z,8.14
2023-04-07T07:45:06.418Z,8.28
2023-04-07T07:46:03.915Z,8.42
2023-04-07T07:47:00.758Z,7.99
2023-04-07T07:47:57.794Z,8.16
2023-04-07T07:48:54.641Z,8.36
2023-04-07T07:49:51.372Z,8.24
2023-04-07T07:50:49.134Z,8.18
2023-04-07T07:51:46.711Z,7.65
2023-04-07T07:52:43.455Z,7.93
2023-04-07T07:53:40.306Z,7.94
2023-04-07T07:54:37.253Z,8.16
2023-04-07T07:55:34.082Z,8.16
2023-04-07T07:56:31.170Z,8.35
2023-04-07T07:57:28.039Z,8.06
2023-04-07T07:58:25.124Z,7.82
2023-04-07T07:59:21.976Z,7.83
2023-04-07T08:00:18.949Z,8.07
2023-04-07T08:01:15.944Z,8.22
2023-04-07T08:02:12.746Z,8.24
2023-04-07T08:03:09.646Z,8.09
2023-04-07T08:04:06.659Z,8.30
2023-04-07T08:05:03.855Z,8.10
2023-04-07T08:06:01.187Z,7.71
2023-04-07T08:06:58.297Z,8.43
2023-04-07T08:07:55.548Z,8.79
2023-04-07T08:08:52.345Z,8.83
2023-04-07T08:09:49.727Z,8.28
2023-04-07T08:10:46.561Z,7.89
2023-04-07T08:11:43.546Z,8.21
2023-04-07T08:12:40.695Z,8.33
2023-04-07T08:13:37.469Z,8.56
2023-04-07T08:14:34.247Z,8.38
2023-04-07T08:15:31.187Z,8.30
2023-04-07T08:16:28.174Z,8.49
2023-04-07T08:17:25.071Z,8.37
2023-04-07T08:18:22.172Z,8.27
2023-04-07T08:19:19.155Z,8.49
2023-04-07T08:20:16.368Z,8.61
2023-04-07T08:21:13.148Z,8.78
2023-04-07T08:22:09.954Z,8.85
2023-04-07T08:23:06.687Z,9.00
2023-04-07T08:24:03.670Z,8.99
2023-04-07T08:25:00.500Z,9.05
2023-04-07T08:25:57.226Z,8.93
2023-04-07T08:26:53.962Z,9.09
2023-04-07T08:27:50.944Z,8.91
2023-04-07T08:28:49.080Z,8.68
2023-04-07T08:29:45.893Z,8.72
2023-04-07T08:30:42.625Z,8.66
2023-04-07T08:31:39.447Z,8.85
2023-04-07T08:32:36.356Z,9.21
2023-04-07T08:33:33.182Z,9.44
2023-04-07T08:34:29.981Z,8.96
2023-04-07T08:35:26.770Z,9.62
2023-04-07T08:36:24.612Z,9.30
2023-04-07T08:37:21.514Z,9.21
2023-04-07T08:38:18.326Z,9.66
2023-04-07T08:39:15.057Z,9.94
2023-04-07T08:40:13.105Z,9.88
2023-04-07T08:41:18.384Z,9.43
2023-04-07T08:42:17.803Z,9.39
2023-04-07T08:43:17.988Z,8.74
2023-04-07T08:44:15.990Z,9.43
2023-04-07T08:45:13.951Z,8.80
2023-04-07T08:46:11.481Z,9.38
2023-04-07T08:47:11.690Z,9.76
2023-04-07T08:48:17.861Z,9.31
2023-04-07T08:49:18.536Z,9.17
2023-04-07T08:50:18.282Z,8.76
2023-04-07T08:51:19.038Z,9.10
2023-04-07T08:52:18.286Z,9.00
2023-04-07T08:53:23.450Z,8.76
2023-04-07T08:54:24.596Z,8.86
2023-04-07T08:55:21.347Z,8.86
2023-04-07T08:56:19.033Z,9.24
2023-04-07T08:57:18.074Z,9.24
2023-04-07T08:58:16.704Z,9.37
2023-04-07T08:59:16.046Z,9.68
2023-04-07T09:00:13.839Z,9.85
2023-04-07T09:01:11.729Z,9.46
2023-04-07T09:02:09.334Z,9.34
2023-04-07T09:03:08.826Z,9.36
2023-04-07T09:04:09.262Z,9.64
2023-04-07T09:05:08.926Z,9.40
2023-04-07T09:06:06.237Z,9.38
2023-04-07T09:07:03.322Z,9.40
2023-04-07T09:08:00.144Z,9.29
2023-04-07T09:08:56.942Z,9.49
2023-04-07T09:09:53.745Z,9.63
2023-04-07T09:10:50.893Z,9.90
2023-04-07T09:11:48.700Z,9.73
2023-04-07T09:12:45.486Z,9.61
2023-04-07T09:13:42.355Z,9.97
2023-04-07T09:14:39.073Z,9.93
2023-04-07T09:15:38.475Z,10.04
2023-04-07T09:16:36.057Z,9.88
2023-04-07T09:17:32.973Z,10.08
2023-04-07T09:18:30.223Z,9.67
2023-04-07T09:19:27.832Z,9.81
2023-04-07T09:20:25.446Z,9.79
2023-04-07T09:21:22.327Z,9.53
2023-04-07T09:22:36.280Z,9.53
2023-04-07T09:23:38.466Z,9.96
2023-04-07T09:24:35.295Z,9.73
2023-04-07T09:25:33.758Z,9.69
2023-04-07T09:26:31.733Z,9.46
2023-04-07T09:27:28.701Z,9.17
2023-04-07T09:28:25.971Z,9.56
2023-04-07T09:29:22.714Z,9.67
2023-04-07T09:30:19.656Z,9.98
2023-04-07T09:31:16.898Z,10.47
2023-04-07T09:32:36.280Z,10.02
2023-04-07T09:33:35.603Z,9.88
2023-04-07T09:34:37.278Z,9.89
2023-04-07T09:35:52.306Z,9.45
2023-04-07T09:36:49.129Z,9.83
2023-04-07T09:38:02.638Z,9.50
2023-04-07T09:39:08.511Z,9.36
2023-04-07T09:40:06.123Z,9.03
2023-04-07T09:41:17.170Z,9.11
2023-04-07T09:42:13.951Z,8.45
2023-04-07T09:43:18.840Z,9.04
2023-04-07T09:44:15.895Z,8.98
2023-04-07T09:45:16.372Z,8.80
2023-04-07T09:46:20.684Z,8.93
2023-04-07T09:47:18.130Z,8.86
2023-04-07T09:48:22.090Z,8.93
2023-04-07T09:49:22.720Z,8.92
2023-04-07T09:50:46.015Z,9.19
2023-04-07T09:52:09.099Z,9.30
2023-04-07T09:53:05.937Z,9.23
2023-04-07T09:54:02.991Z,9.43
2023-04-07T09:54:59.800Z,9.28
2023-04-07T09:55:57.714Z,9.28
2023-04-07T09:56:56.272Z,9.20
2023-04-07T09:57:55.505Z,8.95
2023-04-07T09:58:52.281Z,8.92
2023-04-07T09:59:50.467Z,9.15
2023-04-07T10:00:48.114Z,9.26
2023-04-07T10:01:45.147Z,9.71
2023-04-07T10:02:43.832Z,9.78
2023-04-07T10:03:40.811Z,9.51
2023-04-07T10:04:39.156Z,9.57
2023-04-07T10:05:39.062Z,10.02
2023-04-07T10:06:36.772Z,9.64
2023-04-07T10:07:34.965Z,9.35
2023-04-07T10:08:34.405Z,9.18
2023-04-07T10:09:31.857Z,9.58
2023-04-07T10:10:31.813Z,9.43
2023-04-07T10:11:28.601Z,9.68
2023-04-07T10:12:27.160Z,9.41
2023-04-07T10:13:25.958Z,9.26
2023-04-07T10:14:27.754Z,9.37
2023-04-07T10:15:25.063Z,9.51
2023-04-07T10:16:23.394Z,9.56
2023-04-07T10:17:24.745Z,9.68
2023-04-07T10:18:26.023Z,9.82
2023-04-07T10:19:23.766Z,10.27
2023-04-07T10:20:22.444Z,10.04
2023-04-07T10:21:19.407Z,9.42
2023-04-07T10:22:18.889Z,9.37
2023-04-07T10:23:49.305Z,9.25
2023-04-07T10:25:05.365Z,8.59
2023-04-07T10:26:05.656Z,9.44
2023-04-07T10:27:08.282Z,9.21
2023-04-07T10:28:09.710Z,9.24
2023-04-07T10:29:15.074Z,9.56
2023-04-07T10:30:19.367Z,9.23
2023-04-07T10:31:17.530Z,8.90
2023-04-07T10:32:14.510Z,8.83
2023-04-07T10:33:11.272Z,8.99
2023-04-07T10:34:08.087Z,9.04
2023-04-07T10:35:05.294Z,9.01
2023-04-07T10:36:07.304Z,8.75
2023-04-07T10:37:17.708Z,9.31
2023-04-07T10:38:16.471Z,8.94
2023-04-07T10:39:25.637Z,8.97
2023-04-07T10:40:27.926Z,9.53
2023-04-07T10:41:38.034Z,8.98
2023-04-07T10:42:37.719Z,9.03
2023-04-07T10:43:40.006Z,9.29
2023-04-07T10:44:39.304Z,9.26
2023-04-07T10:45:57.989Z,9.53
2023-04-07T10:47:00.853Z,9.51
2023-04-07T10:48:03.789Z,9.69
2023-04-07T10:49:13.281Z,8.85
2023-04-07T10:50:20.517Z,9.17
2023-04-07T10:51:18.826Z,9.40
2023-04-07T10:52:23.375Z,9.53
2023-04-07T10:53:20.126Z,9.40
2023-04-07T10:54:22.459Z,8.95
2023-04-07T10:55:45.319Z,9.06
2023-04-07T10:57:18.091Z,9.36
2023-04-07T10:58:26.057Z,9.57
2023-04-07T10:59:27.895Z,9.68
2023-04-07T11:00:24.931Z,9.17
2023-04-07T11:01:21.948Z,8.22
2023-04-07T11:02:24.767Z,9.46
2023-04-07T11:03:22.086Z,9.56
2023-04-07T11:04:19.128Z,9.56
2023-04-07T11:05:23.162Z,8.85
2023-04-07T11:06:23.225Z,9.28
2023-04-07T11:07:55.370Z,9.46
2023-04-07T11:08:52.201Z,9.34
2023-04-07T11:09:49.082Z,9.49
2023-04-07T11:10:48.341Z,9.78
2023-04-07T11:11:47.694Z,10.17
2023-04-07T11:12:44.759Z,9.97
2023-04-07T11:13:51.754Z,9.14
2023-04-07T11:14:48.572Z,9.27
2023-04-07T11:15:49.898Z,9.60
2023-04-07T11:16:46.838Z,9.49
2023-04-07T11:17:43.702Z,9.30
2023-04-07T11:18:41.423Z,9.37
2023-04-07T11:19:54.238Z,9.33
2023-04-07T11:20:58.383Z,9.64
2023-04-07T11:22:28.576Z,9.51
2023-04-07T11:23:27.546Z,9.54
2023-04-07T11:24:34.351Z,9.83
2023-04-07T11:25:33.087Z,10.27
2023-04-07T11:26:30.428Z,10.49
2023-04-07T11:27:28.536Z,9.87
2023-04-07T11:28:25.445Z,9.72
2023-04-07T11:29:31.921Z,10.30
2023-04-07T11:30:29.300Z,10.22
2023-04-07T11:31:31.278Z,10.31
2023-04-07T11:32:34.977Z,10.13
2023-04-07T11:33:32.322Z,9.64
2023-04-07T11:34:31.292Z,9.30
2023-04-07T11:35:28.125Z,9.40
2023-04-07T11:36:43.108Z,8.91
2023-04-07T11:37:40.024Z,9.65
2023-04-07T11:38:38.643Z,9.73
2023-04-07T11:39:37.806Z,9.52
2023-04-07T11:40:37.384Z,9.70
2023-04-07T11:41:34.102Z,9.71
2023-04-07T11:42:39.491Z,9.56
2023-04-07T11:43:40.235Z,9.74
2023-04-07T11:44:45.711Z,9.90
2023-04-07T11:45:42.565Z,9.39
2023-04-07T11:46:57.178Z,10.19
2023-04-07T11:47:53.994Z,9.86
2023-04-07T11:48:51.707Z,9.55
2023-04-07T11:49:48.793Z,9.67
2023-04-07T11:50:45.561Z,9.57
2023-04-07T11:51:44.561Z,9.77
2023-04-07T11:52:46.468Z,9.65
2023-04-07T11:53:43.825Z,9.35
2023-04-07T11:54:46.867Z,9.65
2023-04-07T11:55:43.661Z,10.31
2023-04-07T11:56:46.192Z,10.08
2023-04-07T11:57:43.008Z,9.91
2023-04-07T11:58:47.338Z,10.31
2023-04-07T11:59:44.161Z,9.91
2023-04-07T12:01:08.597Z,10.37
2023-04-07T12:02:06.736Z,10.11
2023-04-07T12:03:14.627Z,10.10
2023-04-07T12:04:17.729Z,9.89
2023-04-07T12:05:15.511Z,10.37
2023-04-07T12:06:12.557Z,10.04
2023-04-07T12:07:11.694Z,10.18
2023-04-07T12:08:08.483Z,9.72
2023-04-07T12:09:05.956Z,10.11
2023-04-07T12:10:23.698Z,10.20
2023-04-07T12:11:20.466Z,9.97
2023-04-07T12:12:27.305Z,9.23
2023-04-07T12:13:24.218Z,9.44
2023-04-07T12:14:21.069Z,9.42
2023-04-07T12:15:17.917Z,9.42
2023-04-07T12:16:14.718Z,9.07
2023-04-07T12:17:27.701Z,9.65
2023-04-07T12:18:25.211Z,9.86
2023-04-07T12:19:23.922Z,9.52
2023-04-07T12:20:21.042Z,9.82
2023-04-07T12:21:18.795Z,9.32
2023-04-07T12:22:18.744Z,9.71
2023-04-07T12:23:15.449Z,9.81
2023-04-07T12:24:13.027Z,9.68
2023-04-07T12:25:09.951Z,9.37
2023-04-07T12:26:06.761Z,9.46
2023-04-07T12:27:03.759Z,8.94
2023-04-07T12:28:02.633Z,9.80
2023-04-07T12:29:05.088Z,10.05
2023-04-07T12:30:01.948Z,10.18
2023-04-07T12:30:58.958Z,10.61
2023-04-07T12:31:56.546Z,9.97
2023-04-07T12:32:53.541Z,10.00
2023-04-07T12:33:52.761Z,9.82
2023-04-07T12:34:49.594Z,9.84
2023-04-07T12:35:49.417Z,9.88
2023-04-07T12:36:46.173Z,9.83
2023-04-07T12:37:42.941Z,10.10
2023-04-07T12:38:39.659Z,10.65
2023-04-07T12:39:36.477Z,10.60
2023-04-07T12:40:34.636Z,10.46
2023-04-07T12:41:32.466Z,9.91
2023-04-07T12:42:29.239Z,10.06
2023-04-07T12:43:25.958Z,9.83
2023-04-07T12:44:22.756Z,9.37
2023-04-07T12:45:19.563Z,9.92
2023-04-07T12:46:16.791Z,9.79
2023-04-07T12:47:14.204Z,9.83
2023-04-07T12:48:11.015Z,8.66
2023-04-07T12:49:07.903Z,10.05
2023-04-07T12:50:04.991Z,10.01
2023-04-07T12:51:01.944Z,10.71
2023-04-07T12:51:58.877Z,11.11
2023-04-07T12:52:55.645Z,10.78
2023-04-07T12:53:54.172Z,10.98
2023-04-07T12:54:51.163Z,10.59
2023-04-07T12:55:50.240Z,10.68
2023-04-07T12:56:47.861Z,10.54
2023-04-07T12:57:44.642Z,10.39
2023-04-07T12:58:41.497Z,10.52
2023-04-07T12:59:38.222Z,10.38
2023-04-07T13:00:35.606Z,10.10
2023-04-07T13:01:35.406Z,10.15
2023-04-07T13:02:32.731Z,9.68